sensor_id;sensor_type;location;lat;lon;timestamp;temperature;humidity
11140;DHT22;5624;49.388;11.350;2023-10-13T00:01:19;14.40;99.90
11140;DHT22;5624;49.388;11.350;2023-10-13T00:03:45;14.30;99.90
11140;DHT22;5624;49.388;11.350;2023-10-13T00:06:10;14.30;99.90
11140;DHT22;5624;49.388;11.350;2023-10-13T00:08:36;14.30;99.90
11140;DHT22;5624;49.388;11.350;2023-10-13T00:11:05;14.30;99.90
11140;DHT22;5624;49.388;11.350;2023-10-13T00:13:31;14.30;99.90
11140;DHT22;5624;49.388;11.350;2023-10-13T00:16:08;14.30;99.90
11140;DHT22;5624;49.388;11.350;2023-10-13T00:18:35;14.30;99.90
11140;DHT22;5624;49.388;11.350;2023-10-13T00:21:07;14.30;99.90
11140;DHT22;5624;49.388;11.350;2023-10-13T00:23:43;14.30;99.90
11140;DHT22;5624;49.388;11.350;2023-10-13T00:26:22;14.30;99.90
11140;DHT22;5624;49.388;11.350;2023-10-13T00:28:55;14.40;99.90
11140;DHT22;5624;49.388;11.350;2023-10-13T00:31:36;14.40;99.90
11140;DHT22;5624;49.388;11.350;2023-10-13T00:34:04;14.40;99.90
11140;DHT22;5624;49.388;11.350;2023-10-13T00:36:48;14.40;99.90
11140;DHT22;5624;49.388;11.350;2023-10-13T00:39:33;14.40;99.90
11140;DHT22;5624;49.388;11.350;2023-10-13T00:42:02;14.40;99.90
11140;DHT22;5624;49.388;11.350;2023-10-13T00:44:33;14.40;99.90
11140;DHT22;5624;49.388;11.350;2023-10-13T00:47:10;14.40;99.90
11140;DHT22;5624;49.388;11.350;2023-10-13T00:49:43;14.40;99.90
11140;DHT22;5624;49.388;11.350;2023-10-13T00:52:12;14.50;99.90
11140;DHT22;5624;49.388;11.350;2023-10-13T00:54:42;14.40;99.90
11140;DHT22;5624;49.388;11.350;2023-10-13T00:57:14;14.50;99.90
11140;DHT22;5624;49.388;11.350;2023-10-13T00:59:54;14.40;99.90
11140;DHT22;5624;49.388;11.350;2023-10-13T01:02:20;14.30;99.90
11140;DHT22;5624;49.388;11.350;2023-10-13T01:05:02;14.30;99.90
11140;DHT22;5624;49.388;11.350;2023-10-13T01:07:28;14.30;99.90
11140;DHT22;5624;49.388;11.350;2023-10-13T01:09:54;14.40;99.90
11140;DHT22;5624;49.388;11.350;2023-10-13T01:12:20;14.40;99.90
11140;DHT22;5624;49.388;11.350;2023-10-13T01:14:49;14.20;99.90
11140;DHT22;5624;49.388;11.350;2023-10-13T01:17:14;14.20;99.90
11140;DHT22;5624;49.388;11.350;2023-10-13T01:19:40;14.20;99.90
11140;DHT22;5624;49.388;11.350;2023-10-13T01:22:09;14.20;99.90
11140;DHT22;5624;49.388;11.350;2023-10-13T01:24:35;14.20;99.90
11140;DHT22;5624;49.388;11.350;2023-10-13T01:27:01;14.20;99.90
11140;DHT22;5624;49.388;11.350;2023-10-13T01:29:47;14.20;99.90
11140;DHT22;5624;49.388;11.350;2023-10-13T01:32:23;14.20;99.90
11140;DHT22;5624;49.388;11.350;2023-10-13T01:34:49;14.20;99.90
11140;DHT22;5624;49.388;11.350;2023-10-13T01:37:20;14.10;99.90
11140;DHT22;5624;49.388;11.350;2023-10-13T01:39:47;14.20;99.90
11140;DHT22;5624;49.388;11.350;2023-10-13T01:42:15;14.20;99.90
11140;DHT22;5624;49.388;11.350;2023-10-13T01:44:45;14.20;99.90
11140;DHT22;5624;49.388;11.350;2023-10-13T01:47:10;14.20;99.90
11140;DHT22;5624;49.388;11.350;2023-10-13T01:49:38;14.20;99.90
11140;DHT22;5624;49.388;11.350;2023-10-13T01:52:13;14.30;99.90
11140;DHT22;5624;49.388;11.350;2023-10-13T01:54:45;14.30;99.90
11140;DHT22;5624;49.388;11.350;2023-10-13T01:57:11;14.20;99.90
11140;DHT22;5624;49.388;11.350;2023-10-13T01:59:40;14.20;99.90
11140;DHT22;5624;49.388;11.350;2023-10-13T02:02:10;14.20;99.90
11140;DHT22;5624;49.388;11.350;2023-10-13T02:04:40;14.10;99.90
11140;DHT22;5624;49.388;11.350;2023-10-13T02:07:20;14.10;99.90
11140;DHT22;5624;49.388;11.350;2023-10-13T02:09:46;14.10;99.90
11140;DHT22;5624;49.388;11.350;2023-10-13T02:12:12;14.10;99.90
11140;DHT22;5624;49.388;11.350;2023-10-13T02:14:40;14.10;99.90
11140;DHT22;5624;49.388;11.350;2023-10-13T02:17:07;14.20;99.90
11140;DHT22;5624;49.388;11.350;2023-10-13T02:19:39;14.20;99.90
11140;DHT22;5624;49.388;11.350;2023-10-13T02:22:09;14.10;99.90
11140;DHT22;5624;49.388;11.350;2023-10-13T02:24:36;14.10;99.90
11140;DHT22;5624;49.388;11.350;2023-10-13T02:27:06;14.10;99.90
11140;DHT22;5624;49.388;11.350;2023-10-13T02:29:41;14.10;99.90
11140;DHT22;5624;49.388;11.350;2023-10-13T02:32:07;14.10;99.90
11140;DHT22;5624;49.388;11.350;2023-10-13T02:34:47;14.20;99.90
11140;DHT22;5624;49.388;11.350;2023-10-13T02:37:13;14.10;99.90
11140;DHT22;5624;49.388;11.350;2023-10-13T02:39:39;14.10;99.90
11140;DHT22;5624;49.388;11.350;2023-10-13T02:42:09;14.20;99.90
11140;DHT22;5624;49.388;11.350;2023-10-13T02:44:50;14.10;99.90
11140;DHT22;5624;49.388;11.350;2023-10-13T02:47:16;14.20;99.90
11140;DHT22;5624;49.388;11.350;2023-10-13T02:49:44;14.20;99.90
11140;DHT22;5624;49.388;11.350;2023-10-13T02:52:11;14.20;99.90
11140;DHT22;5624;49.388;11.350;2023-10-13T02:54:38;14.20;99.90
11140;DHT22;5624;49.388;11.350;2023-10-13T02:57:13;14.30;99.90
11140;DHT22;5624;49.388;11.350;2023-10-13T02:59:41;14.40;99.90
11140;DHT22;5624;49.388;11.350;2023-10-13T03:02:12;14.40;99.90
11140;DHT22;5624;49.388;11.350;2023-10-13T03:04:47;14.40;99.90
11140;DHT22;5624;49.388;11.350;2023-10-13T03:07:13;14.30;99.90
11140;DHT22;5624;49.388;11.350;2023-10-13T03:09:48;14.30;99.90
11140;DHT22;5624;49.388;11.350;2023-10-13T03:12:18;14.30;99.90
11140;DHT22;5624;49.388;11.350;2023-10-13T03:14:43;14.30;99.90
11140;DHT22;5624;49.388;11.350;2023-10-13T03:17:20;14.20;99.90
11140;DHT22;5624;49.388;11.350;2023-10-13T03:19:58;14.20;99.90
11140;DHT22;5624;49.388;11.350;2023-10-13T03:22:25;14.30;99.90
11140;DHT22;5624;49.388;11.350;2023-10-13T03:24:58;14.30;99.90
11140;DHT22;5624;49.388;11.350;2023-10-13T03:27:32;14.30;99.90
11140;DHT22;5624;49.388;11.350;2023-10-13T03:30:06;14.20;99.90
11140;DHT22;5624;49.388;11.350;2023-10-13T03:32:39;14.20;99.90
11140;DHT22;5624;49.388;11.350;2023-10-13T03:35:09;14.10;99.90
11140;DHT22;5624;49.388;11.350;2023-10-13T03:37:53;14.10;99.90
11140;DHT22;5624;49.388;11.350;2023-10-13T03:40:20;14.10;99.90
11140;DHT22;5624;49.388;11.350;2023-10-13T03:42:49;14.10;99.90
11140;DHT22;5624;49.388;11.350;2023-10-13T03:45:39;14.00;99.90
11140;DHT22;5624;49.388;11.350;2023-10-13T03:51:02;13.90;99.90
11140;DHT22;5624;49.388;11.350;2023-10-13T03:53:39;13.80;99.90
11140;DHT22;5624;49.388;11.350;2023-10-13T03:56:27;13.70;99.90
11140;DHT22;5624;49.388;11.350;2023-10-13T03:58:57;13.70;99.90
11140;DHT22;5624;49.388;11.350;2023-10-13T04:01:26;13.60;99.90
11140;DHT22;5624;49.388;11.350;2023-10-13T04:04:00;13.60;99.90
11140;DHT22;5624;49.388;11.350;2023-10-13T04:06:34;13.50;99.90
11140;DHT22;5624;49.388;11.350;2023-10-13T04:09:21;13.40;99.90
11140;DHT22;5624;49.388;11.350;2023-10-13T04:12:06;13.20;99.90
11140;DHT22;5624;49.388;11.350;2023-10-13T04:14:47;13.10;99.90
11140;DHT22;5624;49.388;11.350;2023-10-13T04:17:31;13.10;99.90
11140;DHT22;5624;49.388;11.350;2023-10-13T04:20:06;13.00;99.90
11140;DHT22;5624;49.388;11.350;2023-10-13T04:22:36;12.90;99.90
11140;DHT22;5624;49.388;11.350;2023-10-13T04:25:15;12.90;99.90
11140;DHT22;5624;49.388;11.350;2023-10-13T04:27:59;12.90;99.90
11140;DHT22;5624;49.388;11.350;2023-10-13T04:30:51;13.00;99.90
11140;DHT22;5624;49.388;11.350;2023-10-13T04:33:19;13.00;99.90
11140;DHT22;5624;49.388;11.350;2023-10-13T04:38:40;12.80;99.90
11140;DHT22;5624;49.388;11.350;2023-10-13T04:41:39;12.80;99.90
11140;DHT22;5624;49.388;11.350;2023-10-13T04:44:10;12.70;99.90
11140;DHT22;5624;49.388;11.350;2023-10-13T04:46:56;12.60;99.90
11140;DHT22;5624;49.388;11.350;2023-10-13T04:49:25;12.60;99.90
11140;DHT22;5624;49.388;11.350;2023-10-13T04:51:57;12.50;99.90
11140;DHT22;5624;49.388;11.350;2023-10-13T04:54:45;12.50;99.90
11140;DHT22;5624;49.388;11.350;2023-10-13T04:57:19;12.50;99.90
11140;DHT22;5624;49.388;11.350;2023-10-13T04:59:56;12.50;99.90
11140;DHT22;5624;49.388;11.350;2023-10-13T05:02:44;12.50;99.90
11140;DHT22;5624;49.388;11.350;2023-10-13T05:05:28;12.50;99.90
11140;DHT22;5624;49.388;11.350;2023-10-13T05:08:11;12.60;99.90
11140;DHT22;5624;49.388;11.350;2023-10-13T05:10:55;12.60;99.90
11140;DHT22;5624;49.388;11.350;2023-10-13T05:13:39;12.80;99.90
11140;DHT22;5624;49.388;11.350;2023-10-13T05:16:23;12.90;99.90
11140;DHT22;5624;49.388;11.350;2023-10-13T05:19:08;13.00;99.90
11140;DHT22;5624;49.388;11.350;2023-10-13T05:21:52;13.10;99.90
11140;DHT22;5624;49.388;11.350;2023-10-13T05:24:36;13.10;99.90
11140;DHT22;5624;49.388;11.350;2023-10-13T05:27:20;13.10;99.90
11140;DHT22;5624;49.388;11.350;2023-10-13T05:30:05;13.20;99.90
11140;DHT22;5624;49.388;11.350;2023-10-13T05:32:50;13.30;99.90
11140;DHT22;5624;49.388;11.350;2023-10-13T05:35:34;13.30;99.90
11140;DHT22;5624;49.388;11.350;2023-10-13T05:38:18;13.30;99.90
11140;DHT22;5624;49.388;11.350;2023-10-13T05:41:04;13.30;99.90
11140;DHT22;5624;49.388;11.350;2023-10-13T05:43:49;13.30;99.90
11140;DHT22;5624;49.388;11.350;2023-10-13T05:46:33;13.30;99.90
11140;DHT22;5624;49.388;11.350;2023-10-13T05:49:07;13.30;99.90
11140;DHT22;5624;49.388;11.350;2023-10-13T05:51:35;13.40;99.90
11140;DHT22;5624;49.388;11.350;2023-10-13T05:54:02;13.40;99.90
11140;DHT22;5624;49.388;11.350;2023-10-13T05:57:05;13.50;99.90
11140;DHT22;5624;49.388;11.350;2023-10-13T06:00:07;13.60;99.90
11140;DHT22;5624;49.388;11.350;2023-10-13T06:02:51;13.60;99.90
11140;DHT22;5624;49.388;11.350;2023-10-13T06:05:35;13.90;99.90
11140;DHT22;5624;49.388;11.350;2023-10-13T06:08:19;14.30;99.90
11140;DHT22;5624;49.388;11.350;2023-10-13T06:11:04;14.60;99.90
11140;DHT22;5624;49.388;11.350;2023-10-13T06:13:48;14.80;99.90
11140;DHT22;5624;49.388;11.350;2023-10-13T06:16:32;15.00;98.50
11140;DHT22;5624;49.388;11.350;2023-10-13T06:19:16;15.20;94.90
11140;DHT22;5624;49.388;11.350;2023-10-13T06:22:01;15.50;92.40
11140;DHT22;5624;49.388;11.350;2023-10-13T06:24:45;15.60;91.90
11140;DHT22;5624;49.388;11.350;2023-10-13T06:27:29;15.80;89.70
11140;DHT22;5624;49.388;11.350;2023-10-13T06:30:13;16.00;87.50
11140;DHT22;5624;49.388;11.350;2023-10-13T06:32:39;16.40;86.60
11140;DHT22;5624;49.388;11.350;2023-10-13T06:35:05;16.70;83.80
11140;DHT22;5624;49.388;11.350;2023-10-13T06:37:40;17.00;84.20
11140;DHT22;5624;49.388;11.350;2023-10-13T06:40:12;17.50;84.60
11140;DHT22;5624;49.388;11.350;2023-10-13T06:42:58;17.90;82.20
11140;DHT22;5624;49.388;11.350;2023-10-13T06:45:42;18.40;81.40
11140;DHT22;5624;49.388;11.350;2023-10-13T06:48:08;18.50;79.30
11140;DHT22;5624;49.388;11.350;2023-10-13T06:50:37;18.50;78.50
11140;DHT22;5624;49.388;11.350;2023-10-13T06:53:07;18.60;78.40
11140;DHT22;5624;49.388;11.350;2023-10-13T06:55:37;18.50;78.20
11140;DHT22;5624;49.388;11.350;2023-10-13T06:58:07;18.10;79.70
11140;DHT22;5624;49.388;11.350;2023-10-13T07:00:39;18.00;80.10
11140;DHT22;5624;49.388;11.350;2023-10-13T07:03:07;17.90;81.10
11140;DHT22;5624;49.388;11.350;2023-10-13T07:05:43;17.90;79.90
11140;DHT22;5624;49.388;11.350;2023-10-13T07:08:10;18.10;80.80
11140;DHT22;5624;49.388;11.350;2023-10-13T07:10:50;18.00;80.10
11140;DHT22;5624;49.388;11.350;2023-10-13T07:13:39;17.90;80.70
11140;DHT22;5624;49.388;11.350;2023-10-13T07:16:05;18.00;81.90
11140;DHT22;5624;49.388;11.350;2023-10-13T07:18:33;18.10;81.00
11140;DHT22;5624;49.388;11.350;2023-10-13T07:21:09;18.40;80.40
11140;DHT22;5624;49.388;11.350;2023-10-13T07:23:38;18.60;78.30
11140;DHT22;5624;49.388;11.350;2023-10-13T07:26:05;18.70;75.20
11140;DHT22;5624;49.388;11.350;2023-10-13T07:28:34;18.90;75.20
11140;DHT22;5624;49.388;11.350;2023-10-13T07:31:12;19.30;72.90
11140;DHT22;5624;49.388;11.350;2023-10-13T07:33:38;19.70;72.80
11140;DHT22;5624;49.388;11.350;2023-10-13T07:36:07;20.00;70.80
11140;DHT22;5624;49.388;11.350;2023-10-13T07:38:42;20.40;71.30
11140;DHT22;5624;49.388;11.350;2023-10-13T07:41:08;20.60;70.90
11140;DHT22;5624;49.388;11.350;2023-10-13T07:43:35;21.00;65.20
11140;DHT22;5624;49.388;11.350;2023-10-13T07:46:03;21.40;67.30
11140;DHT22;5624;49.388;11.350;2023-10-13T07:48:36;21.90;67.00
11140;DHT22;5624;49.388;11.350;2023-10-13T07:51:06;22.10;64.10
11140;DHT22;5624;49.388;11.350;2023-10-13T07:53:42;22.40;62.50
11140;DHT22;5624;49.388;11.350;2023-10-13T07:56:09;22.70;59.50
11140;DHT22;5624;49.388;11.350;2023-10-13T07:58:38;22.70;61.20
11140;DHT22;5624;49.388;11.350;2023-10-13T08:01:25;22.80;59.40
11140;DHT22;5624;49.388;11.350;2023-10-13T08:03:52;23.10;57.70
11140;DHT22;5624;49.388;11.350;2023-10-13T08:06:44;23.00;58.60
11140;DHT22;5624;49.388;11.350;2023-10-13T08:09:10;22.80;59.20
11140;DHT22;5624;49.388;11.350;2023-10-13T08:11:56;23.00;61.10
11140;DHT22;5624;49.388;11.350;2023-10-13T08:14:22;23.10;60.20
11140;DHT22;5624;49.388;11.350;2023-10-13T08:16:48;23.40;58.70
11140;DHT22;5624;49.388;11.350;2023-10-13T08:19:25;23.50;59.60
11140;DHT22;5624;49.388;11.350;2023-10-13T08:21:58;23.50;59.80
11140;DHT22;5624;49.388;11.350;2023-10-13T08:24:25;23.90;57.30
11140;DHT22;5624;49.388;11.350;2023-10-13T08:26:55;24.10;55.00
11140;DHT22;5624;49.388;11.350;2023-10-13T08:29:45;24.40;56.70
11140;DHT22;5624;49.388;11.350;2023-10-13T08:32:27;25.10;54.80
11140;DHT22;5624;49.388;11.350;2023-10-13T08:34:54;25.50;53.40
11140;DHT22;5624;49.388;11.350;2023-10-13T08:37:21;25.70;49.70
11140;DHT22;5624;49.388;11.350;2023-10-13T08:39:50;26.10;50.40
11140;DHT22;5624;49.388;11.350;2023-10-13T08:42:36;26.50;48.70
11140;DHT22;5624;49.388;11.350;2023-10-13T08:45:23;26.00;48.40
11140;DHT22;5624;49.388;11.350;2023-10-13T08:48:01;25.20;47.40
11140;DHT22;5624;49.388;11.350;2023-10-13T08:50:42;24.70;51.70
11140;DHT22;5624;49.388;11.350;2023-10-13T08:53:21;23.60;52.00
11140;DHT22;5624;49.388;11.350;2023-10-13T08:56:07;23.00;53.90
11140;DHT22;5624;49.388;11.350;2023-10-13T08:58:49;22.40;57.50
11140;DHT22;5624;49.388;11.350;2023-10-13T09:04:25;21.70;62.00
11140;DHT22;5624;49.388;11.350;2023-10-13T09:07:00;22.20;59.20
11140;DHT22;5624;49.388;11.350;2023-10-13T09:09:26;22.70;55.30
11140;DHT22;5624;49.388;11.350;2023-10-13T09:11:55;23.20;58.60
11140;DHT22;5624;49.388;11.350;2023-10-13T09:14:42;23.70;53.30
11140;DHT22;5624;49.388;11.350;2023-10-13T09:17:12;23.90;52.20
11140;DHT22;5624;49.388;11.350;2023-10-13T09:19:53;23.60;51.70
11140;DHT22;5624;49.388;11.350;2023-10-13T09:22:28;23.10;52.20
11140;DHT22;5624;49.388;11.350;2023-10-13T09:25:04;23.00;54.40
11140;DHT22;5624;49.388;11.350;2023-10-13T09:27:38;22.90;55.00
11140;DHT22;5624;49.388;11.350;2023-10-13T09:30:05;23.50;57.70
11140;DHT22;5624;49.388;11.350;2023-10-13T09:32:47;24.20;54.80
11140;DHT22;5624;49.388;11.350;2023-10-13T09:35:18;24.90;54.10
11140;DHT22;5624;49.388;11.350;2023-10-13T09:37:45;25.20;53.60
11140;DHT22;5624;49.388;11.350;2023-10-13T09:40:17;25.40;52.30
11140;DHT22;5624;49.388;11.350;2023-10-13T09:42:51;25.20;51.10
11140;DHT22;5624;49.388;11.350;2023-10-13T09:45:17;25.10;51.00
11140;DHT22;5624;49.388;11.350;2023-10-13T09:47:45;25.10;53.00
11140;DHT22;5624;49.388;11.350;2023-10-13T09:50:18;25.00;50.80
11140;DHT22;5624;49.388;11.350;2023-10-13T09:52:51;24.90;50.90
11140;DHT22;5624;49.388;11.350;2023-10-13T09:55:27;25.20;52.50
11140;DHT22;5624;49.388;11.350;2023-10-13T09:58:07;25.00;49.90
11140;DHT22;5624;49.388;11.350;2023-10-13T10:00:54;25.30;48.40
11140;DHT22;5624;49.388;11.350;2023-10-13T10:03:24;24.70;51.90
11140;DHT22;5624;49.388;11.350;2023-10-13T10:06:05;24.70;49.00
11140;DHT22;5624;49.388;11.350;2023-10-13T10:09:07;24.60;50.00
11140;DHT22;5624;49.388;11.350;2023-10-13T10:15:04;24.80;47.30
11140;DHT22;5624;49.388;11.350;2023-10-13T10:17:42;24.90;48.30
11140;DHT22;5624;49.388;11.350;2023-10-13T10:20:09;25.30;48.60
11140;DHT22;5624;49.388;11.350;2023-10-13T10:22:58;25.60;47.60
11140;DHT22;5624;49.388;11.350;2023-10-13T10:25:31;26.10;45.80
11140;DHT22;5624;49.388;11.350;2023-10-13T10:28:02;26.50;45.70
11140;DHT22;5624;49.388;11.350;2023-10-13T10:30:36;27.00;44.80
11140;DHT22;5624;49.388;11.350;2023-10-13T10:33:04;26.70;44.90
11140;DHT22;5624;49.388;11.350;2023-10-13T10:35:41;26.40;44.30
11140;DHT22;5624;49.388;11.350;2023-10-13T10:38:15;25.70;45.90
11140;DHT22;5624;49.388;11.350;2023-10-13T10:40:59;25.60;47.30
11140;DHT22;5624;49.388;11.350;2023-10-13T10:43:38;25.70;46.10
11140;DHT22;5624;49.388;11.350;2023-10-13T10:46:27;25.50;46.70
11140;DHT22;5624;49.388;11.350;2023-10-13T10:48:55;25.60;46.80
11140;DHT22;5624;49.388;11.350;2023-10-13T10:51:28;25.90;44.90
11140;DHT22;5624;49.388;11.350;2023-10-13T10:53:57;26.00;44.80
11140;DHT22;5624;49.388;11.350;2023-10-13T10:56:25;26.20;45.80
11140;DHT22;5624;49.388;11.350;2023-10-13T10:58:55;26.40;44.00
11140;DHT22;5624;49.388;11.350;2023-10-13T11:01:27;26.00;45.30
11140;DHT22;5624;49.388;11.350;2023-10-13T11:04:07;26.40;46.00
11140;DHT22;5624;49.388;11.350;2023-10-13T11:06:54;26.40;44.20
11140;DHT22;5624;49.388;11.350;2023-10-13T11:09:33;26.80;45.40
11140;DHT22;5624;49.388;11.350;2023-10-13T11:12:14;26.40;43.40
11140;DHT22;5624;49.388;11.350;2023-10-13T11:14:44;26.30;45.80
11140;DHT22;5624;49.388;11.350;2023-10-13T11:17:23;26.40;44.70
11140;DHT22;5624;49.388;11.350;2023-10-13T11:20:14;26.60;45.50
11140;DHT22;5624;49.388;11.350;2023-10-13T11:22:48;26.70;44.10
11140;DHT22;5624;49.388;11.350;2023-10-13T11:25:31;26.50;45.70
11140;DHT22;5624;49.388;11.350;2023-10-13T11:28:13;26.70;44.80
11140;DHT22;5624;49.388;11.350;2023-10-13T11:30:46;26.80;43.30
11140;DHT22;5624;49.388;11.350;2023-10-13T11:33:16;26.70;42.60
11140;DHT22;5624;49.388;11.350;2023-10-13T11:35:48;26.60;43.20
11140;DHT22;5624;49.388;11.350;2023-10-13T11:38:27;26.90;42.90
11140;DHT22;5624;49.388;11.350;2023-10-13T11:41:03;27.30;43.90
11140;DHT22;5624;49.388;11.350;2023-10-13T11:43:47;27.60;43.60
11140;DHT22;5624;49.388;11.350;2023-10-13T11:46:17;27.50;39.10
11140;DHT22;5624;49.388;11.350;2023-10-13T11:49:03;27.40;38.20
11140;DHT22;5624;49.388;11.350;2023-10-13T11:51:38;27.50;39.40
11140;DHT22;5624;49.388;11.350;2023-10-13T11:54:04;27.50;38.10
11140;DHT22;5624;49.388;11.350;2023-10-13T11:56:30;27.60;36.80
11140;DHT22;5624;49.388;11.350;2023-10-13T11:58:55;27.40;36.40
11140;DHT22;5624;49.388;11.350;2023-10-13T12:01:27;27.30;36.40
11140;DHT22;5624;49.388;11.350;2023-10-13T12:04:12;27.50;37.90
11140;DHT22;5624;49.388;11.350;2023-10-13T12:06:58;27.60;37.20
11140;DHT22;5624;49.388;11.350;2023-10-13T12:09:42;27.80;35.90
11140;DHT22;5624;49.388;11.350;2023-10-13T12:12:22;27.90;36.90
11140;DHT22;5624;49.388;11.350;2023-10-13T12:14:48;27.70;35.70
11140;DHT22;5624;49.388;11.350;2023-10-13T12:17:28;27.40;35.80
11140;DHT22;5624;49.388;11.350;2023-10-13T12:20:03;26.90;37.20
11140;DHT22;5624;49.388;11.350;2023-10-13T12:22:36;26.10;36.50
11140;DHT22;5624;49.388;11.350;2023-10-13T12:25:05;25.60;37.30
11140;DHT22;5624;49.388;11.350;2023-10-13T12:27:50;25.50;38.80
11140;DHT22;5624;49.388;11.350;2023-10-13T12:30:21;26.00;38.60
11140;DHT22;5624;49.388;11.350;2023-10-13T12:33:24;26.40;37.40
11140;DHT22;5624;49.388;11.350;2023-10-13T12:36:01;26.80;34.60
11140;DHT22;5624;49.388;11.350;2023-10-13T12:38:52;27.10;35.50
11140;DHT22;5624;49.388;11.350;2023-10-13T12:41:37;27.40;36.00
11140;DHT22;5624;49.388;11.350;2023-10-13T12:44:22;27.40;35.30
11140;DHT22;5624;49.388;11.350;2023-10-13T12:47:06;27.60;36.00
11140;DHT22;5624;49.388;11.350;2023-10-13T12:49:50;27.70;35.50
11140;DHT22;5624;49.388;11.350;2023-10-13T12:52:23;27.40;34.30
11140;DHT22;5624;49.388;11.350;2023-10-13T12:54:52;27.20;34.30
11140;DHT22;5624;49.388;11.350;2023-10-13T12:57:28;27.00;35.00
11140;DHT22;5624;49.388;11.350;2023-10-13T12:59:54;26.80;35.30
11140;DHT22;5624;49.388;11.350;2023-10-13T13:02:24;26.50;35.30
11140;DHT22;5624;49.388;11.350;2023-10-13T13:04:54;26.00;35.00
11140;DHT22;5624;49.388;11.350;2023-10-13T13:07:27;25.60;36.50
11140;DHT22;5624;49.388;11.350;2023-10-13T13:09:56;25.30;37.10
11140;DHT22;5624;49.388;11.350;2023-10-13T13:12:25;25.30;37.90
11140;DHT22;5624;49.388;11.350;2023-10-13T13:14:53;25.40;37.00
11140;DHT22;5624;49.388;11.350;2023-10-13T13:17:21;25.30;38.40
11140;DHT22;5624;49.388;11.350;2023-10-13T13:19:46;25.30;37.80
11140;DHT22;5624;49.388;11.350;2023-10-13T13:22:12;25.40;36.50
11140;DHT22;5624;49.388;11.350;2023-10-13T13:24:38;25.50;37.90
11140;DHT22;5624;49.388;11.350;2023-10-13T13:27:15;25.50;37.80
11140;DHT22;5624;49.388;11.350;2023-10-13T13:29:43;25.50;37.10
11140;DHT22;5624;49.388;11.350;2023-10-13T13:32:09;25.40;38.40
11140;DHT22;5624;49.388;11.350;2023-10-13T13:34:49;25.30;37.40
11140;DHT22;5624;49.388;11.350;2023-10-13T13:37:31;25.30;38.20
11140;DHT22;5624;49.388;11.350;2023-10-13T13:39:57;25.10;39.40
11140;DHT22;5624;49.388;11.350;2023-10-13T13:42:40;25.00;39.00
11140;DHT22;5624;49.388;11.350;2023-10-13T13:45:11;24.90;40.30
11140;DHT22;5624;49.388;11.350;2023-10-13T13:47:37;24.90;39.80
11140;DHT22;5624;49.388;11.350;2023-10-13T13:50:02;24.90;38.80
11140;DHT22;5624;49.388;11.350;2023-10-13T13:52:40;24.90;39.20
11140;DHT22;5624;49.388;11.350;2023-10-13T13:55:11;24.90;40.30
11140;DHT22;5624;49.388;11.350;2023-10-13T13:57:43;25.10;38.60
11140;DHT22;5624;49.388;11.350;2023-10-13T14:00:10;25.20;39.10
11140;DHT22;5624;49.388;11.350;2023-10-13T14:02:42;25.20;38.60
11140;DHT22;5624;49.388;11.350;2023-10-13T14:05:13;25.40;38.20
11140;DHT22;5624;49.388;11.350;2023-10-13T14:07:44;25.70;38.00
11140;DHT22;5624;49.388;11.350;2023-10-13T14:10:19;25.90;38.60
11140;DHT22;5624;49.388;11.350;2023-10-13T14:12:59;25.90;39.00
11140;DHT22;5624;49.388;11.350;2023-10-13T14:15:33;25.70;36.30
11140;DHT22;5624;49.388;11.350;2023-10-13T14:18:06;25.70;36.40
11140;DHT22;5624;49.388;11.350;2023-10-13T14:20:32;25.70;36.70
11140;DHT22;5624;49.388;11.350;2023-10-13T14:23:05;25.60;38.20
11140;DHT22;5624;49.388;11.350;2023-10-13T14:25:33;25.40;37.10
11140;DHT22;5624;49.388;11.350;2023-10-13T14:28:05;25.20;39.00
11140;DHT22;5624;49.388;11.350;2023-10-13T14:30:31;24.90;40.20
11140;DHT22;5624;49.388;11.350;2023-10-13T14:32:57;24.70;38.90
11140;DHT22;5624;49.388;11.350;2023-10-13T14:35:24;24.60;39.30
11140;DHT22;5624;49.388;11.350;2023-10-13T14:37:51;24.40;39.90
11140;DHT22;5624;49.388;11.350;2023-10-13T14:40:17;24.30;41.00
11140;DHT22;5624;49.388;11.350;2023-10-13T14:42:47;24.10;42.30
11140;DHT22;5624;49.388;11.350;2023-10-13T14:45:13;24.00;40.40
11140;DHT22;5624;49.388;11.350;2023-10-13T14:47:42;23.90;41.20
11140;DHT22;5624;49.388;11.350;2023-10-13T14:50:09;23.80;41.20
11140;DHT22;5624;49.388;11.350;2023-10-13T14:52:42;23.60;41.50
11140;DHT22;5624;49.388;11.350;2023-10-13T14:55:09;23.50;41.80
11140;DHT22;5624;49.388;11.350;2023-10-13T14:57:47;23.30;43.00
11140;DHT22;5624;49.388;11.350;2023-10-13T15:00:13;23.10;43.00
11140;DHT22;5624;49.388;11.350;2023-10-13T15:02:40;22.90;43.30
11140;DHT22;5624;49.388;11.350;2023-10-13T15:05:11;22.80;45.20
11140;DHT22;5624;49.388;11.350;2023-10-13T15:07:43;22.60;45.20
11140;DHT22;5624;49.388;11.350;2023-10-13T15:10:11;22.60;44.60
11140;DHT22;5624;49.388;11.350;2023-10-13T15:12:40;22.50;44.60
11140;DHT22;5624;49.388;11.350;2023-10-13T15:15:06;22.40;46.10
11140;DHT22;5624;49.388;11.350;2023-10-13T15:17:47;22.40;43.90
11140;DHT22;5624;49.388;11.350;2023-10-13T15:20:13;22.50;45.50
11140;DHT22;5624;49.388;11.350;2023-10-13T15:22:43;22.40;44.50
11140;DHT22;5624;49.388;11.350;2023-10-13T15:25:09;22.30;45.40
11140;DHT22;5624;49.388;11.350;2023-10-13T15:27:48;22.40;44.10
11140;DHT22;5624;49.388;11.350;2023-10-13T15:30:27;22.30;43.90
11140;DHT22;5624;49.388;11.350;2023-10-13T15:33:08;22.30;44.70
11140;DHT22;5624;49.388;11.350;2023-10-13T15:35:33;22.20;45.80
11140;DHT22;5624;49.388;11.350;2023-10-13T15:37:59;22.30;44.50
11140;DHT22;5624;49.388;11.350;2023-10-13T15:40:26;22.10;44.90
11140;DHT22;5624;49.388;11.350;2023-10-13T15:42:53;22.20;44.20
11140;DHT22;5624;49.388;11.350;2023-10-13T15:45:25;22.10;45.00
11140;DHT22;5624;49.388;11.350;2023-10-13T15:47:57;22.10;44.70
11140;DHT22;5624;49.388;11.350;2023-10-13T15:50:23;21.90;46.30
11140;DHT22;5624;49.388;11.350;2023-10-13T15:52:49;21.90;46.50
11140;DHT22;5624;49.388;11.350;2023-10-13T15:55:15;21.80;46.60
11140;DHT22;5624;49.388;11.350;2023-10-13T15:57:43;21.70;46.60
11140;DHT22;5624;49.388;11.350;2023-10-13T16:00:12;21.50;47.60
11140;DHT22;5624;49.388;11.350;2023-10-13T16:02:55;21.50;46.90
11140;DHT22;5624;49.388;11.350;2023-10-13T16:05:31;21.30;47.50
11140;DHT22;5624;49.388;11.350;2023-10-13T16:08:01;21.10;48.20
11140;DHT22;5624;49.388;11.350;2023-10-13T16:10:27;20.90;48.60
11140;DHT22;5624;49.388;11.350;2023-10-13T16:12:53;20.90;48.80
11140;DHT22;5624;49.388;11.350;2023-10-13T16:15:19;20.60;49.70
11140;DHT22;5624;49.388;11.350;2023-10-13T16:17:47;20.50;50.00
11140;DHT22;5624;49.388;11.350;2023-10-13T16:20:12;20.40;50.30
11140;DHT22;5624;49.388;11.350;2023-10-13T16:22:45;20.40;49.30
11140;DHT22;5624;49.388;11.350;2023-10-13T16:25:15;20.40;49.40